createdAt,value
2023-05-18T00:02:07.043Z,102258.69
2023-05-18T00:04:34.679Z,102261.47
2023-05-18T00:07:05.345Z,102270.47
2023-05-18T00:09:37.048Z,102278.19
2023-05-18T00:12:04.678Z,102274.50
2023-05-18T00:14:31.394Z,102276.81
2023-05-18T00:16:58.007Z,102271.72
2023-05-18T00:19:25.150Z,102279.59
2023-05-18T00:21:52.595Z,102286.72
2023-05-18T00:24:19.365Z,102280.44
2023-05-18T00:26:47.177Z,102281.13
2023-05-18T00:29:13.751Z,102275.56
2023-05-18T00:31:40.541Z,102279.22
2023-05-18T00:34:10.696Z,102276.66
2023-05-18T00:36:37.886Z,102280.91
2023-05-18T00:39:05.869Z,102275.00
2023-05-18T00:41:32.922Z,102282.72
2023-05-18T00:44:00.532Z,102283.66
2023-05-18T00:46:28.386Z,102284.75
2023-05-18T00:48:57.169Z,102282.63
2023-05-18T00:51:24.708Z,102286.34
2023-05-18T00:53:52.642Z,102285.16
2023-05-18T00:56:20.066Z,102285.63
2023-05-18T00:58:47.829Z,102289.91
2023-05-18T01:01:17.831Z,102289.06
2023-05-18T01:03:44.718Z,102290.00
2023-05-18T01:06:12.850Z,102295.88
2023-05-18T01:08:39.410Z,102295.31
2023-05-18T01:11:33.842Z,102309.78
2023-05-18T01:14:15.943Z,102307.47
2023-05-18T01:16:54.288Z,102312.94
2023-05-18T01:19:51.874Z,102311.50
2023-05-18T01:22:37.740Z,102310.38
2023-05-18T01:25:32.058Z,102305.72
2023-05-18T01:28:06.582Z,102300.97
2023-05-18T01:30:41.195Z,102302.78
2023-05-18T01:33:11.051Z,102308.69
2023-05-18T01:35:38.648Z,102305.50
2023-05-18T01:38:05.171Z,102313.03
2023-05-18T01:40:37.133Z,102311.34
2023-05-18T01:43:16.057Z,102318.19
2023-05-18T01:45:46.984Z,102319.78
2023-05-18T01:48:18.542Z,102308.25
2023-05-18T01:50:48.893Z,102312.72
2023-05-18T01:53:42.913Z,102307.78
2023-05-18T01:56:12.650Z,102315.94
2023-05-18T01:58:40.112Z,102312.97
2023-05-18T02:01:06.973Z,102318.75
2023-05-18T02:03:33.626Z,102322.22
2023-05-18T02:06:00.357Z,102322.53
2023-05-18T02:08:27.014Z,102319.19
2023-05-18T02:10:53.522Z,102318.41
2023-05-18T02:13:19.986Z,102324.81
2023-05-18T02:15:46.519Z,102321.44
2023-05-18T02:18:13.034Z,102322.28
2023-05-18T02:20:40.501Z,102323.78
2023-05-18T02:23:06.973Z,102328.28
2023-05-18T02:25:33.776Z,102330.66
2023-05-18T02:28:00.407Z,102328.28
2023-05-18T02:30:26.906Z,102326.56
2023-05-18T02:32:53.416Z,102318.25
2023-05-18T02:35:19.872Z,102324.47
2023-05-18T02:37:47.261Z,102335.34
2023-05-18T02:40:15.824Z,102341.78
2023-05-18T02:42:42.491Z,102342.91
2023-05-18T02:45:10.770Z,102339.47
2023-05-18T02:47:38.410Z,102340.13
2023-05-18T02:50:06.389Z,102343.38
2023-05-18T02:52:34.011Z,102343.63
2023-05-18T02:55:00.585Z,102348.72
2023-05-18T02:57:48.164Z,102344.47
2023-05-18T03:00:19.697Z,102347.28
2023-05-18T03:02:48.354Z,102340.03
2023-05-18T03:05:16.598Z,102341.75
2023-05-18T03:07:50.545Z,102349.84
2023-05-18T03:10:22.555Z,102345.81
2023-05-18T03:12:49.707Z,102344.75
2023-05-18T03:15:16.946Z,102341.75
2023-05-18T03:17:43.712Z,102337.88
2023-05-18T03:20:11.593Z,102349.03
2023-05-18T03:22:38.180Z,102352.00
2023-05-18T03:25:05.188Z,102346.44
2023-05-18T03:27:31.855Z,102345.59
2023-05-18T03:29:58.438Z,102350.09
2023-05-18T03:32:25.510Z,102349.44
2023-05-18T03:34:53.068Z,102350.50
2023-05-18T03:37:21.296Z,102342.81
2023-05-18T03:39:47.730Z,102350.28
2023-05-18T03:42:15.374Z,102356.31
2023-05-18T03:44:41.998Z,102360.16
2023-05-18T03:47:08.855Z,102366.38
2023-05-18T03:49:35.787Z,102368.06
2023-05-18T03:52:04.380Z,102368.94
2023-05-18T03:54:30.831Z,102362.09
2023-05-18T03:56:57.272Z,102365.72
2023-05-18T03:59:23.700Z,102372.31
2023-05-18T04:01:53.870Z,102365.25
2023-05-18T04:04:23.475Z,102367.19
2023-05-18T04:06:51.547Z,102364.00
2023-05-18T04:09:19.068Z,102364.84
2023-05-18T04:11:45.757Z,102377.47
2023-05-18T04:14:12.446Z,102374.25
2023-05-18T04:16:38.984Z,102372.50
2023-05-18T04:19:08.144Z,102366.06
2023-05-18T04:21:36.055Z,102378.91
2023-05-18T04:24:05.427Z,102377.81
2023-05-18T04:26:34.634Z,102376.72
2023-05-18T04:29:01.111Z,102380.16
2023-05-18T04:31:27.985Z,102386.56
2023-05-18T04:33:54.716Z,102386.97
2023-05-18T04:36:25.618Z,102383.31
2023-05-18T04:38:52.754Z,102387.16
2023-05-18T04:41:22.647Z,102387.78
2023-05-18T04:43:50.257Z,102394.13
2023-05-18T04:46:17.098Z,102395.81
2023-05-18T04:48:44.999Z,102401.34
2023-05-18T04:51:11.510Z,102406.66
2023-05-18T04:53:39.013Z,102407.91
2023-05-18T04:56:06.411Z,102406.97
2023-05-18T04:58:35.554Z,102409.31
2023-05-18T05:01:02.199Z,102410.06
2023-05-18T05:03:29.028Z,102408.13
2023-05-18T05:05:55.853Z,102406.13
2023-05-18T05:08:23.810Z,102410.97
2023-05-18T05:10:50.255Z,102406.31
2023-05-18T05:13:16.700Z,102403.25
2023-05-18T05:15:43.223Z,102400.19
2023-05-18T05:18:09.758Z,102405.94
2023-05-18T05:20:36.309Z,102403.75
2023-05-18T05:23:02.858Z,102404.16
2023-05-18T05:25:29.823Z,102406.22
2023-05-18T05:27:56.446Z,102408.88
2023-05-18T05:30:23.367Z,102409.63
2023-05-18T05:32:50.016Z,102413.66
2023-05-18T05:35:16.860Z,102413.28
2023-05-18T05:37:44.542Z,102414.28
2023-05-18T05:40:11.324Z,102427.28
2023-05-18T05:42:42.296Z,102427.28
2023-05-18T05:45:08.934Z,102422.25
2023-05-18T05:47:42.656Z,102431.75
2023-05-18T05:50:09.295Z,102429.63
2023-05-18T05:52:36.627Z,102432.53
2023-05-18T05:55:04.778Z,102426.53
2023-05-18T05:57:31.752Z,102424.50
2023-05-18T05:59:59.260Z,102425.88
2023-05-18T06:02:26.788Z,102429.88
2023-05-18T06:04:54.364Z,102424.00
2023-05-18T06:07:20.910Z,102427.50
2023-05-18T06:09:47.413Z,102427.91
2023-05-18T06:12:13.975Z,102427.59
2023-05-18T06:14:40.499Z,102421.41
2023-05-18T06:17:08.179Z,102430.47
2023-05-18T06:19:34.709Z,102420.84
2023-05-18T06:22:02.144Z,102422.75
2023-05-18T06:24:33.927Z,102424.25
2023-05-18T06:27:23.350Z,102432.22
2023-05-18T06:30:01.420Z,102421.91
2023-05-18T06:32:37.354Z,102428.38
2023-05-18T06:35:04.417Z,102425.53
2023-05-18T06:37:31.429Z,102423.25
2023-05-18T06:39:58.482Z,102422.88
2023-05-18T06:42:25.018Z,102424.66
2023-05-18T06:45:00.457Z,102427.06
2023-05-18T06:47:48.576Z,102424.19
2023-05-18T06:50:15.104Z,102431.69
2023-05-18T06:52:42.137Z,102416.91
2023-05-18T06:55:09.603Z,102430.34
2023-05-18T06:57:36.160Z,102426.63
2023-05-18T07:00:07.078Z,102431.72
2023-05-18T07:02:34.223Z,102436.22
2023-05-18T07:05:01.524Z,102425.94
2023-05-18T07:07:27.984Z,102425.50
2023-05-18T07:09:54.939Z,102418.81
2023-05-18T07:12:21.474Z,102419.63
2023-05-18T07:14:47.980Z,102423.25
2023-05-18T07:17:14.491Z,102417.94
2023-05-18T07:19:40.985Z,102416.25
2023-05-18T07:22:07.650Z,102420.50
2023-05-18T07:24:34.225Z,102421.63
2023-05-18T07:27:01.007Z,102418.81
2023-05-18T07:29:29.783Z,102417.13
2023-05-18T07:31:56.351Z,102418.53
2023-05-18T07:34:23.782Z,102410.06
2023-05-18T07:36:50.616Z,102412.59
2023-05-18T07:39:19.698Z,102417.88
2023-05-18T07:41:47.332Z,102405.69
2023-05-18T07:44:14.319Z,102410.25
2023-05-18T07:46:41.295Z,102415.69
2023-05-18T07:49:07.769Z,102419.59
2023-05-18T07:51:34.301Z,102419.06
2023-05-18T07:54:01.017Z,102413.44
2023-05-18T07:56:27.483Z,102410.03
2023-05-18T07:58:53.917Z,102414.81
2023-05-18T08:01:22.050Z,102418.00
2023-05-18T08:03:48.586Z,102422.50
2023-05-18T08:06:15.097Z,102420.50
2023-05-18T08:08:41.561Z,102413.72
2023-05-18T08:11:08.011Z,102424.72
2023-05-18T08:13:34.477Z,102421.47
2023-05-18T08:16:11.294Z,102420.50
2023-05-18T08:18:38.666Z,102418.47
2023-05-18T08:21:08.075Z,102419.34
2023-05-18T08:23:34.960Z,102413.16
2023-05-18T08:26:03.327Z,102422.19
2023-05-18T08:28:31.083Z,102427.50
2023-05-18T08:30:57.993Z,102426.13
2023-05-18T08:33:24.494Z,102425.09
2023-05-18T08:35:51.183Z,102428.19
2023-05-18T08:38:17.780Z,102426.06
2023-05-18T08:40:56.578Z,102425.00
2023-05-18T08:43:30.085Z,102416.22
2023-05-18T08:46:04.061Z,102424.97
2023-05-18T08:48:32.131Z,102422.28
2023-05-18T08:50:58.973Z,102422.00
2023-05-18T08:53:25.863Z,102419.91
2023-05-18T08:55:57.431Z,102425.84
2023-05-18T08:58:34.316Z,102424.84
2023-05-18T09:01:00.849Z,102418.50
2023-05-18T09:03:27.539Z,102425.00
2023-05-18T09:05:56.237Z,102417.31
2023-05-18T09:08:23.565Z,102430.16
2023-05-18T09:10:50.855Z,102421.91
2023-05-18T09:13:22.550Z,102427.66
2023-05-18T09:15:49.164Z,102426.63
2023-05-18T09:18:15.621Z,102423.59
2023-05-18T09:20:42.140Z,102410.91
2023-05-18T09:23:08.608Z,102420.50
2023-05-18T09:25:38.741Z,102415.41
2023-05-18T09:28:05.249Z,102420.72
2023-05-18T09:30:40.218Z,102414.53
2023-05-18T09:33:17.161Z,102420.19
2023-05-18T09:35:47.084Z,102416.28
2023-05-18T09:38:17.456Z,102404.69
2023-05-18T09:40:45.382Z,102404.91
2023-05-18T09:43:11.896Z,102404.41
2023-05-18T09:45:46.894Z,102398.47
2023-05-18T09:48:14.348Z,102402.41
2023-05-18T09:50:42.725Z,102402.44
2023-05-18T09:53:10.160Z,102401.88
2023-05-18T09:55:44.352Z,102401.84
2023-05-18T09:58:10.899Z,102402.13
2023-05-18T10:00:40.687Z,102399.31
2023-05-18T10:03:17.175Z,102400.72
2023-05-18T10:05:43.674Z,102393.09
2023-05-18T10:08:12.421Z,102387.72
2023-05-18T10:10:40.687Z,102394.25
2023-05-18T10:13:07.224Z,102382.84
2023-05-18T10:15:35.427Z,102381.97
2023-05-18T10:18:03.553Z,102384.28
2023-05-18T10:20:30.380Z,102382.88
2023-05-18T10:23:00.759Z,102382.81
2023-05-18T10:25:29.095Z,102369.50
2023-05-18T10:28:05.057Z,102364.53
2023-05-18T10:30:32.870Z,102369.34
2023-05-18T10:33:00.337Z,102369.06
2023-05-18T10:35:28.438Z,102365.03
2023-05-18T10:37:57.564Z,102363.44
2023-05-18T10:40:24.412Z,102367.09
2023-05-18T10:42:52.236Z,102367.13
2023-05-18T10:45:19.413Z,102369.97
2023-05-18T10:47:47.835Z,102367.41
2023-05-18T10:50:15.214Z,102367.13
2023-05-18T10:52:42.393Z,102360.88
2023-05-18T10:55:09.298Z,102353.03
2023-05-18T10:57:42.245Z,102347.44
2023-05-18T11:00:10.192Z,102347.91
2023-05-18T11:02:42.222Z,102347.44
2023-05-18T11:05:10.364Z,102350.97
2023-05-18T11:07:37.793Z,102342.97
2023-05-18T11:10:09.523Z,102351.13
2023-05-18T11:12:38.345Z,102344.28
2023-05-18T11:15:05.972Z,102353.84
2023-05-18T11:17:32.529Z,102350.44
2023-05-18T11:20:12.757Z,102350.25
2023-05-18T11:22:57.179Z,102355.22
2023-05-18T11:25:32.874Z,102349.84
2023-05-18T11:28:04.678Z,102337.41
2023-05-18T11:30:34.371Z,102333.31
2023-05-18T11:33:42.885Z,102335.63
2023-05-18T11:36:11.711Z,102343.28
2023-05-18T11:38:55.461Z,102345.16
2023-05-18T11:41:36.093Z,102341.53
2023-05-18T11:44:06.899Z,102337.47
2023-05-18T11:46:33.922Z,102336.31
2023-05-18T11:49:19.894Z,102341.91
2023-05-18T11:51:58.445Z,102344.03
2023-05-18T11:54:26.550Z,102332.88
2023-05-18T11:56:53.486Z,102341.66
2023-05-18T11:59:46.089Z,102332.13
2023-05-18T12:02:18.568Z,102338.06
2023-05-18T12:04:47.913Z,102337.25
2023-05-18T12:07:15.429Z,102327.88
2023-05-18T12:09:43.313Z,102329.06
2023-05-18T12:12:11.403Z,102324.97
2023-05-18T12:14:41.037Z,102328.25
2023-05-18T12:17:07.691Z,102326.88
2023-05-18T12:19:38.834Z,102339.19
2023-05-18T12:22:06.355Z,102324.19
2023-05-18T12:24:32.889Z,102316.25
2023-05-18T12:27:06.846Z,102313.84
2023-05-18T12:29:37.590Z,102319.06
2023-05-18T12:32:09.417Z,102316.03
2023-05-18T12:34:36.603Z,102315.16
2023-05-18T12:37:03.817Z,102310.91
2023-05-18T12:39:30.401Z,102305.28
2023-05-18T12:42:15.084Z,102308.06
2023-05-18T12:44:45.874Z,102311.84
2023-05-18T12:47:13.725Z,102300.63
2023-05-18T12:49:42.666Z,102307.75
2023-05-18T12:52:11.428Z,102309.28
2023-05-18T12:54:49.585Z,102305.28
2023-05-18T12:57:16.335Z,102302.56
2023-05-18T12:59:51.430Z,102298.38
2023-05-18T13:02:34.913Z,102295.94
2023-05-18T13:05:10.103Z,102304.22
2023-05-18T13:07:41.583Z,102289.81
2023-05-18T13:10:13.269Z,102287.81
2023-05-18T13:12:44.512Z,102288.28
2023-05-18T13:15:22.257Z,102295.28
2023-05-18T13:17:58.797Z,102295.16
2023-05-18T13:20:36.454Z,102302.06
2023-05-18T13:23:06.882Z,102298.00
2023-05-18T13:25:33.754Z,102291.22
2023-05-18T13:28:01.317Z,102290.53
2023-05-18T13:30:27.861Z,102294.19
2023-05-18T13:32:54.507Z,102280.81
2023-05-18T13:35:21.446Z,102280.81
2023-05-18T13:37:49.102Z,102284.44
2023-05-18T13:40:16.784Z,102284.31
2023-05-18T13:42:44.201Z,102281.81
2023-05-18T13:45:13.749Z,102281.25
2023-05-18T13:47:41.677Z,102274.28
2023-05-18T13:50:09.427Z,102280.59
2023-05-18T13:52:36.512Z,102275.44
2023-05-18T13:55:04.690Z,102264.41
2023-05-18T13:57:32.321Z,102265.53
2023-05-18T13:59:59.612Z,102264.69
2023-05-18T14:02:26.542Z,102257.59
2023-05-18T14:04:53.542Z,102249.59
2023-05-18T14:07:20.150Z,102249.56
2023-05-18T14:09:46.602Z,102253.97
2023-05-18T14:12:13.129Z,102256.59
2023-05-18T14:14:41.028Z,102260.88
2023-05-18T14:17:09.822Z,102259.69
2023-05-18T14:19:37.677Z,102256.72
2023-05-18T14:22:04.237Z,102251.19
2023-05-18T14:24:30.753Z,102251.66
2023-05-18T14:26:57.311Z,102252.41
2023-05-18T14:29:23.762Z,102250.34
2023-05-18T14:31:50.279Z,102249.59
2023-05-18T14:34:16.744Z,102236.34
2023-05-18T14:36:43.197Z,102248.88
2023-05-18T14:39:09.655Z,102252.31
2023-05-18T14:41:36.215Z,102242.53
2023-05-18T14:44:08.538Z,102242.75
2023-05-18T14:46:35.961Z,102248.63
2023-05-18T14:49:03.017Z,102242.25
2023-05-18T14:51:29.485Z,102238.44
2023-05-18T14:53:55.956Z,102233.28
2023-05-18T14:56:22.765Z,102229.81
2023-05-18T14:58:49.294Z,102230.69
2023-05-18T15:01:15.734Z,102237.25
2023-05-18T15:03:42.576Z,102229.59
2023-05-18T15:06:09.542Z,102239.69
2023-05-18T15:08:36.183Z,102242.31
2023-05-18T15:11:02.640Z,102243.22
2023-05-18T15:13:29.109Z,102249.16
2023-05-18T15:15:55.678Z,102245.63
2023-05-18T15:18:22.169Z,102237.25
2023-05-18T15:20:48.696Z,102234.41
2023-05-18T15:23:15.205Z,102233.22
2023-05-18T15:25:41.728Z,102238.81
2023-05-18T15:28:08.996Z,102238.75
2023-05-18T15:30:35.470Z,102237.28
2023-05-18T15:33:06.205Z,102232.38
2023-05-18T15:35:34.768Z,102231.63
2023-05-18T15:38:01.231Z,102244.78
2023-05-18T15:40:27.856Z,102229.06
2023-05-18T15:42:54.306Z,102226.84
2023-05-18T15:45:20.788Z,102232.47
2023-05-18T15:47:47.258Z,102227.34
2023-05-18T15:50:13.779Z,102226.84
2023-05-18T15:52:40.225Z,102227.09
2023-05-18T15:55:07.024Z,102224.25
2023-05-18T15:57:33.656Z,102225.66
2023-05-18T16:00:00.207Z,102216.47
2023-05-18T16:02:26.727Z,102214.44
2023-05-18T16:04:53.184Z,102217.75
2023-05-18T16:07:19.764Z,102212.72
2023-05-18T16:09:47.966Z,102215.50
2023-05-18T16:12:14.451Z,102219.56
2023-05-18T16:14:40.916Z,102210.13
2023-05-18T16:17:07.542Z,102218.88
2023-05-18T16:19:34.067Z,102208.13
2023-05-18T16:22:00.669Z,102213.34
2023-05-18T16:24:27.117Z,102214.19
2023-05-18T16:26:53.565Z,102216.63
2023-05-18T16:29:20.024Z,102218.69
2023-05-18T16:31:46.580Z,102220.13
2023-05-18T16:34:13.034Z,102218.22
2023-05-18T16:36:39.589Z,102216.81
2023-05-18T16:39:07.778Z,102216.88
2023-05-18T16:41:34.227Z,102219.09
2023-05-18T16:44:00.810Z,102224.16
2023-05-18T16:46:27.649Z,102221.44
2023-05-18T16:48:54.187Z,102214.25
2023-05-18T16:51:20.714Z,102213.72
2023-05-18T16:53:47.205Z,102207.72
2023-05-18T16:56:13.666Z,102206.81
2023-05-18T16:58:40.137Z,102205.81
2023-05-18T17:01:16.078Z,102206.38
2023-05-18T17:03:46.283Z,102208.72
2023-05-18T17:06:12.852Z,102205.78
2023-05-18T17:08:39.322Z,102205.84
2023-05-18T17:11:05.811Z,102205.84
2023-05-18T17:13:32.279Z,102203.09
2023-05-18T17:15:58.736Z,102202.59
2023-05-18T17:18:25.229Z,102205.66
2023-05-18T17:20:51.677Z,102204.25
2023-05-18T17:23:18.809Z,102192.16
2023-05-18T17:25:46.300Z,102196.56
2023-05-18T17:28:13.827Z,102203.66
2023-05-18T17:30:40.297Z,102195.97
2023-05-18T17:33:06.895Z,102200.91
2023-05-18T17:35:34.468Z,102202.38
2023-05-18T17:38:00.931Z,102204.91
2023-05-18T17:40:27.406Z,102213.16
2023-05-18T17:42:53.873Z,102212.06
2023-05-18T17:45:20.361Z,102202.53
2023-05-18T17:47:46.843Z,102208.78
2023-05-18T17:50:16.103Z,102207.44
2023-05-18T17:52:42.541Z,102213.38
2023-05-18T17:55:09.531Z,102214.22
2023-05-18T17:57:36.063Z,102217.09
2023-05-18T18:00:02.556Z,102212.84
2023-05-18T18:02:37.754Z,102219.34
2023-05-18T18:05:04.391Z,102214.28
2023-05-18T18:07:30.829Z,102222.22
2023-05-18T18:09:57.270Z,102222.16
2023-05-18T18:12:23.712Z,102219.56
2023-05-18T18:14:50.260Z,102226.63
2023-05-18T18:17:16.757Z,102222.41
2023-05-18T18:19:43.252Z,102227.22
2023-05-18T18:22:09.736Z,102225.53
2023-05-18T18:24:36.267Z,102224.63
2023-05-18T18:27:02.906Z,102224.41
2023-05-18T18:29:30.981Z,102225.53
2023-05-18T18:31:57.548Z,102225.28
2023-05-18T18:34:24.037Z,102230.94
2023-05-18T18:36:50.559Z,102231.22
2023-05-18T18:39:17.010Z,102224.16
2023-05-18T18:41:43.506Z,102225.03
2023-05-18T18:44:09.966Z,102224.75
2023-05-18T18:46:36.512Z,102229.59
2023-05-18T18:49:02.989Z,102233.31
2023-05-18T18:51:29.637Z,102234.13
2023-05-18T18:53:56.138Z,102237.53
2023-05-18T18:56:24.269Z,102237.56
2023-05-18T18:58:50.946Z,102242.94
2023-05-18T19:01:17.508Z,102241.25
2023-05-18T19:03:44.075Z,102245.75
2023-05-18T19:06:11.336Z,102253.69
2023-05-18T19:08:37.826Z,102259.31
2023-05-18T19:11:04.297Z,102256.22
2023-05-18T19:13:30.751Z,102257.34
2023-05-18T19:15:58.098Z,102264.38
2023-05-18T19:18:24.705Z,102259.59
2023-05-18T19:20:51.199Z,102258.13
2023-05-18T19:23:17.708Z,102259.00
2023-05-18T19:25:44.191Z,102266.03
2023-05-18T19:28:10.710Z,102274.44
2023-05-18T19:30:37.288Z,102280.03
2023-05-18T19:33:03.779Z,102273.00
2023-05-18T19:35:31.867Z,102281.94
2023-05-18T19:37:58.901Z,102280.28
2023-05-18T19:40:27.216Z,102281.66
2023-05-18T19:42:53.811Z,102277.72
2023-05-18T19:45:20.321Z,102283.88
2023-05-18T19:47:46.845Z,102279.84
2023-05-18T19:50:13.376Z,102275.00
2023-05-18T19:52:39.876Z,102277.22
2023-05-18T19:55:06.759Z,102282.19
2023-05-18T19:57:33.227Z,102282.19
2023-05-18T19:59:59.814Z,102282.94
2023-05-18T20:02:26.368Z,102287.63
2023-05-18T20:04:53.802Z,102293.47
2023-05-18T20:07:20.519Z,102283.25
2023-05-18T20:09:47.072Z,102286.59
2023-05-18T20:12:13.586Z,102285.13
2023-05-18T20:14:40.064Z,102287.94
2023-05-18T20:17:06.582Z,102283.34
2023-05-18T20:19:33.207Z,102288.19
2023-05-18T20:21:59.896Z,102290.94
2023-05-18T20:24:26.359Z,102306.28
2023-05-18T20:26:53.277Z,102312.97
2023-05-18T20:29:19.772Z,102301.59
2023-05-18T20:31:46.356Z,102305.00
2023-05-18T20:34:12.872Z,102307.28
2023-05-18T20:36:39.369Z,102301.59
2023-05-18T20:39:07.206Z,102305.03
2023-05-18T20:41:33.733Z,102309.03
2023-05-18T20:44:01.927Z,102316.94
2023-05-18T20:46:31.081Z,102308.19
2023-05-18T20:48:57.768Z,102311.44
2023-05-18T20:51:24.695Z,102316.47
2023-05-18T20:53:51.444Z,102306.97
2023-05-18T20:56:18.812Z,102301.78
2023-05-18T20:58:48.627Z,102305.06
2023-05-18T21:01:16.661Z,102304.38
2023-05-18T21:03:45.239Z,102301.13
2023-05-18T21:06:13.060Z,102301.25
2023-05-18T21:08:40.534Z,102305.16
2023-05-18T21:11:07.124Z,102301.31
2023-05-18T21:13:35.696Z,102305.22
2023-05-18T21:16:02.360Z,102305.75
2023-05-18T21:18:28.842Z,102312.22
2023-05-18T21:20:57.350Z,102307.41
2023-05-18T21:23:23.847Z,102316.50
2023-05-18T21:25:50.650Z,102317.19
2023-05-18T21:28:17.541Z,102315.22
2023-05-18T21:30:45.628Z,102316.44
2023-05-18T21:33:12.271Z,102313.94
2023-05-18T21:35:38.897Z,102318.53
2023-05-18T21:38:05.350Z,102310.22
2023-05-18T21:40:32.063Z,102312.00
2023-05-18T21:42:58.731Z,102313.13
2023-05-18T21:45:25.450Z,102312.19
2023-05-18T21:47:51.946Z,102309.16
2023-05-18T21:50:18.436Z,102314.09
2023-05-18T21:52:44.890Z,102311.69
2023-05-18T21:55:11.428Z,102318.56
2023-05-18T21:57:37.910Z,102314.84
2023-05-18T22:00:06.343Z,102313.06
2023-05-18T22:02:39.323Z,102318.59
2023-05-18T22:05:06.275Z,102311.44
2023-05-18T22:07:32.709Z,102313.69
2023-05-18T22:09:59.215Z,102315.69
2023-05-18T22:12:25.678Z,102322.09
2023-05-18T22:14:52.138Z,102317.91
2023-05-18T22:17:18.597Z,102324.47
2023-05-18T22:19:45.562Z,102314.19
2023-05-18T22:22:19.477Z,102319.19
2023-05-18T22:24:55.476Z,102322.66
2023-05-18T22:27:22.184Z,102314.31
2023-05-18T22:29:49.149Z,102321.97
2023-05-18T22:32:17.729Z,102315.84
2023-05-18T22:34:44.202Z,102315.75
2023-05-18T22:37:10.879Z,102318.84
2023-05-18T22:39:37.336Z,102317.69
2023-05-18T22:42:03.906Z,102314.09
2023-05-18T22:44:30.482Z,102313.31
2023-05-18T22:46:57.101Z,102313.84
2023-05-18T22:49:23.687Z,102313.84
2023-05-18T22:51:50.119Z,102314.75
2023-05-18T22:54:16.567Z,102308.28
2023-05-18T22:56:43.004Z,102305.94
2023-05-18T22:59:11.526Z,102311.28
2023-05-18T23:01:38.268Z,102313.22
2023-05-18T23:04:04.853Z,102299.63
2023-05-18T23:06:31.698Z,102309.13
2023-05-18T23:09:00.403Z,102305.75
2023-05-18T23:11:28.521Z,102303.22
2023-05-18T23:13:55.135Z,102308.31
2023-05-18T23:16:22.658Z,102308.28
2023-05-18T23:18:50.540Z,102305.44
2023-05-18T23:21:17.161Z,102308.66
2023-05-18T23:23:45.588Z,102302.88
2023-05-18T23:26:12.687Z,102303.91
2023-05-18T23:28:39.222Z,102296.75
2023-05-18T23:31:05.680Z,102303.06
2023-05-18T23:33:32.420Z,102307.97
2023-05-18T23:36:02.472Z,102299.41
2023-05-18T23:38:34.816Z,102301.59
2023-05-18T23:41:05.198Z,102303.91
2023-05-18T23:43:31.847Z,102304.91
2023-05-18T23:45:59.800Z,102299.41
2023-05-18T23:48:27.575Z,102299.56
2023-05-18T23:50:59.629Z,102296.50
2023-05-18T23:53:27.008Z,102299.00
2023-05-18T23:55:53.826Z,102306.78
2023-05-18T23:58:23.523Z,102309.53
